Time;durP1;ratioP1;P1;durP2;ratioP2;P2;SDS_P1;SDS_P2;PMS_P1;PMS_P2;Temp;Humidity;BMP_temperature;BMP_pressure;BME280_temperature;BME280_humidity;BME280_pressure;Samples;Min_cycle;Max_cycle;Signal;HPM_P1;HPM_P2
2021/09/06 00:02:07;;;;;;;6.72;4.32;;;16.60;99.90;;;;;;5054537;28;20043;-85
2021/09/06 00:04:36;;;;;;;7.80;4.72;;;16.60;99.90;;;;;;5054542;28;20621;-85
2021/09/06 00:07:03;;;;;;;7.68;4.57;;;16.60;99.90;;;;;;5054497;28;20485;-83
2021/09/06 00:09:32;;;;;;;7.65;5.07;;;16.60;99.90;;;;;;5046925;28;20073;-84
2021/09/06 00:11:59;;;;;;;7.22;4.43;;;16.50;99.90;;;;;;5054541;28;20046;-85
2021/09/06 00:14:26;;;;;;;7.10;4.55;;;16.50;99.90;;;;;;5053072;28;20132;-85
2021/09/06 00:16:53;;;;;;;7.03;4.50;;;16.50;99.90;;;;;;5054305;28;20044;-85
2021/09/06 00:19:23;;;;;;;6.70;4.80;;;16.50;99.90;;;;;;5053953;28;20432;-86
2021/09/06 00:21:52;;;;;;;8.23;4.63;;;16.40;99.90;;;;;;5054642;28;20053;-85
2021/09/06 00:24:19;;;;;;;6.90;4.65;;;16.40;99.90;;;;;;5045352;28;20044;-85
2021/09/06 00:26:46;;;;;;;7.47;4.50;;;16.40;99.90;;;;;;5054398;28;20417;-85
2021/09/06 00:29:13;;;;;;;8.77;4.63;;;16.40;99.90;;;;;;5054350;28;20036;-86
2021/09/06 00:31:40;;;;;;;7.53;4.70;;;16.50;99.90;;;;;;5054067;28;20045;-85
2021/09/06 00:34:07;;;;;;;8.82;4.80;;;16.40;99.90;;;;;;5054022;28;20043;-86
2021/09/06 00:36:35;;;;;;;9.60;4.90;;;16.20;99.90;;;;;;5054096;28;20041;-86
2021/09/06 00:39:03;;;;;;;7.47;4.95;;;16.20;99.90;;;;;;5054002;28;20052;-85
2021/09/06 00:41:30;;;;;;;8.60;4.60;;;16.20;99.90;;;;;;5046440;28;20045;-86
2021/09/06 00:43:58;;;;;;;6.72;4.82;;;16.10;99.90;;;;;;5053872;28;20045;-86
2021/09/06 00:46:25;;;;;;;7.40;4.32;;;16.20;99.90;;;;;;5053292;28;20730;-85
2021/09/06 00:48:55;;;;;;;9.65;4.90;;;;;;;;;;5053675;28;20552;-85
2021/09/06 00:51:22;;;;;;;7.68;4.60;;;15.90;99.90;;;;;;5053330;28;20150;-84
2021/09/06 00:53:49;;;;;;;8.40;4.47;;;15.90;99.90;;;;;;5053566;28;20037;-85
2021/09/06 00:56:17;;;;;;;6.15;4.22;;;15.80;99.90;;;;;;5053458;28;20045;-85
2021/09/06 00:58:45;;;;;;;8.98;4.70;;;15.80;99.90;;;;;;5053511;28;20041;-84
2021/09/06 01:01:12;;;;;;;8.02;5.30;;;15.90;99.90;;;;;;5053112;28;20470;-84
2021/09/06 01:03:40;;;;;;;7.72;5.13;;;15.90;99.90;;;;;;5049737;28;20037;-84
2021/09/06 01:06:07;;;;;;;6.88;4.68;;;15.90;99.90;;;;;;5049055;28;20045;-84
2021/09/06 01:08:34;;;;;;;6.53;4.35;;;15.70;99.90;;;;;;5049706;28;20036;-85
2021/09/06 01:11:01;;;;;;;7.38;4.70;;;15.70;99.90;;;;;;5049888;28;20059;-84
2021/09/06 01:13:30;;;;;;;7.38;4.90;;;15.90;99.90;;;;;;5049538;28;20479;-85
2021/09/06 01:15:56;;;;;;;6.75;4.32;;;15.80;99.90;;;;;;5050175;28;20045;-85
2021/09/06 01:18:24;;;;;;;6.82;4.18;;;15.80;99.90;;;;;;5049439;28;20041;-84
2021/09/06 01:20:51;;;;;;;8.20;4.20;;;15.80;99.90;;;;;;5049960;28;20048;-84
2021/09/06 01:23:18;;;;;;;6.93;4.45;;;15.80;99.90;;;;;;5049465;28;20157;-84
2021/09/06 01:25:49;;;;;;;7.38;4.70;;;15.80;99.90;;;;;;5049517;28;20041;-85
2021/09/06 01:28:17;;;;;;;6.75;4.60;;;15.60;99.90;;;;;;5049708;28;20051;-85
2021/09/06 01:30:45;;;;;;;7.35;4.88;;;15.80;99.90;;;;;;5049345;28;20044;-85
2021/09/06 01:33:12;;;;;;;7.63;4.90;;;15.70;99.90;;;;;;5049290;28;20106;-85
2021/09/06 01:35:39;;;;;;;6.75;4.82;;;15.70;99.90;;;;;;5049650;28;20044;-85
2021/09/06 01:38:07;;;;;;;8.82;4.25;;;15.50;99.90;;;;;;5049339;28;20055;-85
2021/09/06 01:40:34;;;;;;;6.47;4.20;;;15.70;99.90;;;;;;5049640;28;20053;-86
2021/09/06 01:43:02;;;;;;;8.15;4.97;;;15.60;99.90;;;;;;5049250;28;20120;-85
2021/09/06 01:45:29;;;;;;;8.88;4.35;;;15.50;99.90;;;;;;5041818;28;20037;-85
2021/09/06 01:47:56;;;;;;;7.10;4.90;;;15.60;99.90;;;;;;5049222;28;20410;-85
2021/09/06 01:50:25;;;;;;;8.20;4.65;;;15.60;99.90;;;;;;5049026;28;20160;-86
2021/09/06 01:52:52;;;;;;;8.10;4.85;;;15.60;99.90;;;;;;5049377;28;20057;-85
2021/09/06 01:55:20;;;;;;;7.45;4.50;;;15.40;99.90;;;;;;5049523;28;20041;-86
2021/09/06 01:57:47;;;;;;;5.88;4.13;;;15.40;99.90;;;;;;5052658;28;20044;-85
2021/09/06 02:00:18;;;;;;;7.38;4.50;;;15.30;99.90;;;;;;5051758;28;20496;-84
2021/09/06 02:02:46;;;;;;;7.63;4.80;;;15.50;99.90;;;;;;5051978;28;20052;-85
2021/09/06 02:05:13;;;;;;;6.88;4.57;;;15.50;99.90;;;;;;5052335;28;20502;-86
2021/09/06 02:07:40;;;;;;;8.75;4.93;;;15.50;99.90;;;;;;5052531;28;20041;-86
2021/09/06 02:10:08;;;;;;;8.18;4.47;;;15.30;99.90;;;;;;5052403;28;20047;-85
2021/09/06 02:12:35;;;;;;;7.22;4.90;;;15.20;99.90;;;;;;5052521;28;20051;-85
2021/09/06 02:15:02;;;;;;;8.65;4.70;;;15.30;99.90;;;;;;5052661;28;20391;-84
2021/09/06 02:17:30;;;;;;;10.35;4.97;;;15.20;99.90;;;;;;5052453;28;20041;-85
2021/09/06 02:19:57;;;;;;;8.38;4.93;;;15.10;99.90;;;;;;5052477;28;20037;-85
2021/09/06 02:22:24;;;;;;;8.00;4.82;;;15.00;99.90;;;;;;5052004;28;20045;-85
2021/09/06 02:24:51;;;;;;;7.10;4.72;;;14.80;99.90;;;;;;5052454;28;20041;-85
2021/09/06 02:27:18;;;;;;;8.75;4.72;;;14.80;99.90;;;;;;5051995;28;20493;-85
2021/09/06 02:29:45;;;;;;;8.60;4.45;;;14.70;99.90;;;;;;5052214;28;20051;-85
2021/09/06 02:32:12;;;;;;;6.40;4.20;;;14.70;99.90;;;;;;5051835;28;20081;-85
2021/09/06 02:34:40;;;;;;;8.65;4.47;;;14.70;99.90;;;;;;5052210;28;20051;-86
2021/09/06 02:37:07;;;;;;;7.82;4.13;;;14.70;99.90;;;;;;5051914;28;20041;-85
2021/09/06 02:39:36;;;;;;;8.95;4.57;;;14.70;99.90;;;;;;5052217;28;20053;-85
2021/09/06 02:42:03;;;;;;;7.28;4.63;;;14.70;99.90;;;;;;5053692;28;20045;-84
2021/09/06 02:44:31;;;;;;;8.25;4.90;;;14.70;99.90;;;;;;5056101;28;20045;-85
2021/09/06 02:46:58;;;;;;;7.47;4.45;;;14.70;99.90;;;;;;5055960;28;20578;-86
2021/09/06 02:49:25;;;;;;;7.65;4.72;;;14.70;99.90;;;;;;5055833;28;20063;-86
2021/09/06 02:51:54;;;;;;;7.05;4.43;;;14.70;99.90;;;;;;5055577;28;20049;-86
2021/09/06 02:54:21;;;;;;;6.07;3.92;;;14.60;99.90;;;;;;5055730;28;20049;-86
2021/09/06 02:56:48;;;;;;;6.75;4.70;;;14.60;99.90;;;;;;5055701;28;20045;-87
2021/09/06 02:59:15;;;;;;;8.10;4.93;;;14.70;99.90;;;;;;5055786;28;20071;-86
2021/09/06 03:01:42;;;;;;;7.47;4.70;;;14.70;99.90;;;;;;5054828;28;20044;-86
2021/09/06 03:04:09;;;;;;;7.22;4.50;;;14.70;99.90;;;;;;5053786;28;20057;-86
2021/09/06 03:06:36;;;;;;;7.78;4.80;;;14.70;99.90;;;;;;5052022;28;20072;-87
2021/09/06 03:09:05;;;;;;;7.13;4.75;;;14.60;99.90;;;;;;5051949;28;20488;-86
2021/09/06 03:11:31;;;;;;;6.95;4.75;;;14.60;99.90;;;;;;5045291;28;20421;-86
2021/09/06 03:13:58;;;;;;;7.47;5.10;;;14.60;99.90;;;;;;5052400;28;20053;-88
2021/09/06 03:16:26;;;;;;;7.60;4.80;;;14.60;99.90;;;;;;5052102;28;20502;-87
2021/09/06 03:18:53;;;;;;;7.20;4.40;;;14.50;99.90;;;;;;5052563;28;20049;-86
2021/09/06 03:21:20;;;;;;;7.47;4.40;;;14.50;99.90;;;;;;5052682;28;20049;-87
2021/09/06 03:23:47;;;;;;;7.53;4.57;;;14.50;99.90;;;;;;5053062;28;20045;-87
2021/09/06 03:26:15;;;;;;;6.57;4.57;;;14.50;99.90;;;;;;5052262;28;20051;-85
2021/09/06 03:28:42;;;;;;;7.43;4.55;;;14.50;99.90;;;;;;5051999;28;20041;-86
2021/09/06 03:31:10;;;;;;;8.27;4.82;;;14.50;99.90;;;;;;5051467;28;20045;-86
2021/09/06 03:33:37;;;;;;;7.30;4.18;;;14.50;99.90;;;;;;5051885;28;20047;-86
2021/09/06 03:36:05;;;;;;;8.30;5.05;;;14.40;99.90;;;;;;5051919;28;20047;-86
2021/09/06 03:38:32;;;;;;;7.88;4.85;;;14.40;99.90;;;;;;5052495;28;20047;-84
2021/09/06 03:40:59;;;;;;;8.38;4.57;;;14.50;99.90;;;;;;5051738;28;20051;-85
2021/09/06 03:43:28;;;;;;;8.73;4.60;;;14.40;99.90;;;;;;5051670;28;20056;-84
2021/09/06 03:45:56;;;;;;;7.07;4.38;;;14.40;99.90;;;;;;5051920;28;20075;-84
2021/09/06 03:48:23;;;;;;;8.10;4.70;;;14.30;99.90;;;;;;5050997;28;20049;-84
2021/09/06 03:50:50;;;;;;;8.10;5.03;;;14.20;99.90;;;;;;5051361;28;20106;-85
2021/09/06 03:53:17;;;;;;;7.22;4.55;;;14.20;99.90;;;;;;5049356;28;20478;-85
2021/09/06 03:55:44;;;;;;;7.80;4.82;;;14.10;99.90;;;;;;5051307;28;20461;-86
2021/09/06 03:58:11;;;;;;;7.88;4.38;;;14.00;99.90;;;;;;5050728;28;20041;-85
2021/09/06 04:00:40;;;;;;;6.75;4.45;;;14.00;99.90;;;;;;5050665;28;20049;-85
2021/09/06 04:03:07;;;;;;;7.63;4.97;;;14.00;99.90;;;;;;5050876;28;20041;-84
2021/09/06 04:05:34;;;;;;;7.15;4.50;;;14.00;99.90;;;;;;5053921;28;20091;-85
2021/09/06 04:08:01;;;;;;;7.03;4.72;;;13.90;99.90;;;;;;5054058;28;20037;-84
2021/09/06 04:10:28;;;;;;;8.10;4.80;;;13.90;99.90;;;;;;5054191;28;20135;-85
2021/09/06 04:12:55;;;;;;;7.47;4.25;;;13.90;99.90;;;;;;5054307;28;20490;-90
2021/09/06 04:15:22;;;;;;;9.30;4.90;;;13.80;99.90;;;;;;5052939;28;20037;-87
2021/09/06 04:17:51;;;;;;;8.60;4.60;;;13.80;99.90;;;;;;5054917;28;20051;-88
2021/09/06 04:20:18;;;;;;;6.75;4.55;;;13.80;99.90;;;;;;5055240;28;20041;-89
2021/09/06 04:22:45;;;;;;;8.57;5.20;;;13.70;99.90;;;;;;5054467;28;20044;-85
2021/09/06 04:25:13;;;;;;;8.90;5.00;;;13.70;99.90;;;;;;5054235;28;20041;-87
2021/09/06 04:27:40;;;;;;;7.03;4.50;;;13.70;99.90;;;;;;5054562;28;20422;-86
2021/09/06 04:30:08;;;;;;;7.75;4.50;;;13.70;99.90;;;;;;5054643;28;20045;-90
2021/09/06 04:32:35;;;;;;;8.10;4.80;;;13.80;99.90;;;;;;5055106;28;20057;-90
2021/09/06 04:35:04;;;;;;;7.03;4.43;;;13.70;99.90;;;;;;5054710;28;20047;-91
2021/09/06 04:37:31;;;;;;;7.50;4.97;;;13.70;99.90;;;;;;5060784;28;20141;-90
2021/09/06 04:39:58;;;;;;;7.80;4.80;;;13.70;99.90;;;;;;5059713;28;20056;-89
2021/09/06 04:42:25;;;;;;;8.20;4.63;;;13.70;99.90;;;;;;5055333;28;20049;-89
2021/09/06 04:44:52;;;;;;;8.68;4.82;;;13.70;99.90;;;;;;5055140;28;20048;-89
2021/09/06 04:47:20;;;;;;;8.05;5.03;;;13.70;99.90;;;;;;5055013;28;20051;-89
2021/09/06 04:49:47;;;;;;;7.95;5.05;;;13.70;99.90;;;;;;5055082;28;20048;-89
2021/09/06 04:52:15;;;;;;;8.38;4.88;;;13.70;99.90;;;;;;5054764;28;20059;-89
2021/09/06 04:54:42;;;;;;;7.13;4.60;;;13.60;99.90;;;;;;5054847;28;20045;-89
2021/09/06 04:57:09;;;;;;;7.15;4.30;;;13.60;99.90;;;;;;5055074;28;20536;-90
2021/09/06 04:59:36;;;;;;;6.93;4.70;;;13.60;99.90;;;;;;5054891;28;20044;-90
2021/09/06 05:02:04;;;;;;;9.20;5.10;;;13.50;99.90;;;;;;5054414;28;20044;-89
2021/09/06 05:04:31;;;;;;;6.68;4.70;;;13.40;99.90;;;;;;5053918;28;20051;-90
2021/09/06 05:06:58;;;;;;;7.97;5.25;;;13.40;99.90;;;;;;5054599;28;20483;-90
2021/09/06 05:09:26;;;;;;;9.52;5.25;;;13.40;99.90;;;;;;5054672;28;20433;-90
2021/09/06 05:11:53;;;;;;;8.75;5.38;;;13.40;99.90;;;;;;5054587;28;20406;-91
2021/09/06 05:14:20;;;;;;;8.15;4.97;;;13.40;99.90;;;;;;5054531;28;20045;-90
2021/09/06 05:16:47;;;;;;;7.85;4.97;;;13.40;99.90;;;;;;5055468;28;20044;-90
2021/09/06 05:19:14;;;;;;;7.35;4.85;;;13.40;99.90;;;;;;5056881;28;20051;-89
2021/09/06 05:21:41;;;;;;;9.45;5.35;;;13.50;99.90;;;;;;5055490;28;20049;-89
2021/09/06 05:24:08;;;;;;;8.93;5.10;;;13.50;99.90;;;;;;5054244;28;20041;-89
2021/09/06 05:26:37;;;;;;;8.77;5.13;;;13.50;99.90;;;;;;5054364;28;20140;-90
2021/09/06 05:29:04;;;;;;;7.93;5.22;;;13.50;99.90;;;;;;5054413;28;20096;-90
2021/09/06 05:31:31;;;;;;;7.78;5.00;;;13.40;99.90;;;;;;5054136;28;20041;-87
2021/09/06 05:33:58;;;;;;;8.30;4.80;;;13.40;99.90;;;;;;5054284;28;20398;-90
2021/09/06 05:36:25;;;;;;;8.23;4.97;;;13.30;99.90;;;;;;5054380;28;20401;-89
2021/09/06 05:38:52;;;;;;;7.22;4.80;;;13.30;99.90;;;;;;5054028;28;20076;-89
2021/09/06 05:41:20;;;;;;;8.45;4.90;;;13.30;99.90;;;;;;5054062;28;20128;-89
2021/09/06 05:43:49;;;;;;;7.63;5.13;;;13.30;99.90;;;;;;5053952;28;20048;-89
2021/09/06 05:46:16;;;;;;;8.15;5.35;;;13.30;99.90;;;;;;5055144;28;20055;-89
2021/09/06 05:48:43;;;;;;;8.15;5.10;;;13.30;99.90;;;;;;5056350;28;20044;-89
2021/09/06 05:51:10;;;;;;;6.75;4.55;;;13.30;99.90;;;;;;5054471;28;20041;-89
2021/09/06 05:53:37;;;;;;;8.82;5.28;;;13.40;99.90;;;;;;5056193;28;20049;-90
2021/09/06 05:56:05;;;;;;;8.27;5.45;;;13.40;99.90;;;;;;5055131;28;20045;-90
2021/09/06 05:58:33;;;;;;;9.73;5.60;;;13.50;99.90;;;;;;5054054;28;20049;-90
2021/09/06 06:01:01;;;;;;;9.32;5.13;;;13.50;99.90;;;;;;5053851;28;20090;-89
2021/09/06 06:03:28;;;;;;;8.40;5.35;;;13.50;99.90;;;;;;5053969;28;20124;-89
2021/09/06 06:05:55;;;;;;;9.23;5.65;;;13.60;99.90;;;;;;5053817;28;20140;-90
2021/09/06 06:08:22;;;;;;;7.43;5.30;;;13.70;99.90;;;;;;5053722;28;20493;-89
2021/09/06 06:10:49;;;;;;;9.40;5.68;;;13.70;99.90;;;;;;5053698;28;20048;-89
2021/09/06 06:13:16;;;;;;;10.55;5.68;;;13.80;99.90;;;;;;5053505;28;20059;-90
2021/09/06 06:15:43;;;;;;;8.18;5.50;;;13.80;99.90;;;;;;5053754;28;20069;-89
2021/09/06 06:18:12;;;;;;;9.07;5.70;;;13.90;99.90;;;;;;5053552;28;20131;-90
2021/09/06 06:20:39;;;;;;;9.68;5.18;;;13.90;99.90;;;;;;5053537;28;20041;-89
2021/09/06 06:23:06;;;;;;;8.45;5.43;;;13.90;99.90;;;;;;5053457;28;20045;-89
2021/09/06 06:25:33;;;;;;;8.48;5.72;;;14.00;99.90;;;;;;5053510;28;20071;-89
2021/09/06 06:28:00;;;;;;;8.88;5.32;;;14.10;99.90;;;;;;5053299;28;20046;-89
2021/09/06 06:30:27;;;;;;;8.65;5.35;;;14.10;99.90;;;;;;5053426;28;20041;-89
2021/09/06 06:32:54;;;;;;;8.25;5.55;;;14.20;99.90;;;;;;5053223;28;20053;-89
2021/09/06 06:35:22;;;;;;;9.93;6.10;;;14.20;99.90;;;;;;5053574;28;20131;-89
2021/09/06 06:37:49;;;;;;;10.32;6.22;;;14.30;99.90;;;;;;5053498;28;20136;-90
2021/09/06 06:40:16;;;;;;;9.77;6.30;;;14.40;99.90;;;;;;5053243;28;20049;-89
2021/09/06 06:42:43;;;;;;;8.68;5.95;;;14.40;99.90;;;;;;5053466;28;20053;-90
2021/09/06 06:45:12;;;;;;;9.05;5.55;;;14.40;99.90;;;;;;5053301;28;20135;-90
2021/09/06 06:47:39;;;;;;;10.30;5.57;;;14.40;99.90;;;;;;5053290;28;20479;-89
2021/09/06 06:50:07;;;;;;;10.00;5.78;;;14.50;99.90;;;;;;5053542;28;20041;-90
2021/09/06 06:52:36;;;;;;;8.73;5.50;;;14.50;99.90;;;;;;5052998;28;20045;-89
2021/09/06 06:55:04;;;;;;;8.00;5.10;;;14.60;99.90;;;;;;5053247;28;20466;-89
2021/09/06 06:57:31;;;;;;;8.35;5.35;;;14.60;99.90;;;;;;5053071;28;20497;-89
2021/09/06 06:59:58;;;;;;;10.38;6.13;;;14.70;99.90;;;;;;5053300;28;20128;-90
2021/09/06 07:02:25;;;;;;;9.82;5.88;;;14.70;99.90;;;;;;5053548;28;20053;-90
2021/09/06 07:04:54;;;;;;;9.43;6.05;;;14.80;99.90;;;;;;5055719;28;20108;-89
2021/09/06 07:07:22;;;;;;;8.98;5.57;;;14.80;99.90;;;;;;5052910;28;20045;-88
2021/09/06 07:09:50;;;;;;;8.90;5.65;;;14.90;99.90;;;;;;5053185;28;20152;-89
2021/09/06 07:12:17;;;;;;;8.27;5.55;;;14.90;99.90;;;;;;5053054;28;20045;-90
2021/09/06 07:14:44;;;;;;;9.10;5.70;;;15.00;99.90;;;;;;5053215;28;20045;-89
2021/09/06 07:17:11;;;;;;;8.60;5.45;;;15.00;99.90;;;;;;5053153;28;20136;-89
2021/09/06 07:19:38;;;;;;;10.52;6.22;;;15.10;99.90;;;;;;5052995;28;20482;-91
2021/09/06 07:22:05;;;;;;;9.90;6.47;;;15.20;99.90;;;;;;5052996;28;20055;-91
2021/09/06 07:24:32;;;;;;;10.27;6.13;;;15.20;99.90;;;;;;5053171;28;20048;-90
2021/09/06 07:27:00;;;;;;;11.63;6.07;;;15.20;99.90;;;;;;5053033;28;20049;-90
2021/09/06 07:29:27;;;;;;;10.02;6.30;;;15.20;99.90;;;;;;5056765;28;20132;-90
2021/09/06 07:31:54;;;;;;;9.02;5.97;;;15.30;99.90;;;;;;5056587;28;20053;-90
2021/09/06 07:34:21;;;;;;;9.75;6.32;;;15.30;99.90;;;;;;5056630;28;20052;-91
2021/09/06 07:36:48;;;;;;;9.90;6.30;;;15.30;99.90;;;;;;5056438;28;20047;-90
2021/09/06 07:39:16;;;;;;;8.52;6.13;;;15.40;99.90;;;;;;5056117;28;20045;-90
2021/09/06 07:41:44;;;;;;;8.63;5.80;;;15.40;99.90;;;;;;5058654;28;20474;-90
2021/09/06 07:44:12;;;;;;;9.32;5.95;;;15.50;99.90;;;;;;5056536;28;20463;-90
2021/09/06 07:46:39;;;;;;;8.35;5.50;;;15.60;99.90;;;;;;5054355;28;20111;-88
2021/09/06 07:49:06;;;;;;;8.93;5.80;;;15.60;99.90;;;;;;5054124;28;20041;-87
2021/09/06 07:51:33;;;;;;;9.20;5.70;;;15.70;99.90;;;;;;5055766;28;20052;-87
2021/09/06 07:54:01;;;;;;;8.98;5.72;;;15.70;99.90;;;;;;5055183;28;20224;-87
2021/09/06 07:56:29;;;;;;;7.97;5.63;;;15.80;99.90;;;;;;5055494;28;20045;-87
2021/09/06 07:58:56;;;;;;;8.57;5.25;;;15.90;99.90;;;;;;5055230;28;20041;-88
2021/09/06 08:01:24;;;;;;;7.18;4.68;;;16.00;99.90;;;;;;5055138;28;20421;-88
2021/09/06 08:03:51;;;;;;;8.90;5.60;;;16.00;99.90;;;;;;5055561;28;20136;-88
2021/09/06 08:06:18;;;;;;;8.90;5.32;;;16.10;99.90;;;;;;5057598;28;20051;-88
2021/09/06 08:08:45;;;;;;;8.25;5.20;;;16.10;99.90;;;;;;5059950;28;20421;-88
2021/09/06 08:11:12;;;;;;;8.75;5.07;;;16.20;99.90;;;;;;5062022;28;20479;-88
2021/09/06 08:13:39;;;;;;;9.00;6.18;;;16.30;99.90;;;;;;5066568;28;20140;-89
2021/09/06 08:16:06;;;;;;;10.10;6.38;;;16.40;99.90;;;;;;5060939;28;20596;-86
2021/09/06 08:18:34;;;;;;;9.82;6.50;;;16.40;99.90;;;;;;5055245;28;20047;-87
2021/09/06 08:21:01;;;;;;;11.57;6.82;;;16.50;99.90;;;;;;5055378;28;20049;-89
2021/09/06 08:23:28;;;;;;;8.70;5.75;;;16.50;99.90;;;;;;5055492;28;20045;-88
2021/09/06 08:25:55;;;;;;;8.00;5.53;;;16.60;99.90;;;;;;5054769;28;20051;-87
2021/09/06 08:28:22;;;;;;;8.95;5.50;;;16.60;99.90;;;;;;5054802;28;20095;-88
2021/09/06 08:30:49;;;;;;;8.65;5.53;;;16.70;99.90;;;;;;5054528;28;20051;-88
2021/09/06 08:33:16;;;;;;;9.05;5.30;;;16.70;99.90;;;;;;5054658;28;20045;-88
2021/09/06 08:35:46;;;;;;;9.57;4.80;;;16.80;99.90;;;;;;5054744;28;20410;-88
2021/09/06 08:38:13;;;;;;;8.40;5.07;;;16.80;99.90;;;;;;5054543;28;20041;-87
2021/09/06 08:40:40;;;;;;;7.18;4.53;;;16.90;99.90;;;;;;5053468;28;20053;-88
2021/09/06 08:43:08;;;;;;;7.15;4.32;;;17.00;99.90;;;;;;5054569;28;20048;-87
2021/09/06 08:45:36;;;;;;;6.75;4.53;;;17.10;99.90;;;;;;5054210;28;20053;-89
2021/09/06 08:48:05;;;;;;;6.78;4.32;;;17.20;99.90;;;;;;5053305;28;20475;-87
2021/09/06 08:50:33;;;;;;;7.60;4.57;;;17.20;99.90;;;;;;5054528;28;20049;-88
2021/09/06 08:53:02;;;;;;;7.57;4.90;;;17.30;99.90;;;;;;5054633;28;20045;-86
2021/09/06 08:55:29;;;;;;;7.45;5.05;;;17.50;99.90;;;;;;5054169;28;20045;-88
2021/09/06 08:57:56;;;;;;;7.43;4.82;;;17.50;99.90;;;;;;5054095;28;20408;-88
2021/09/06 09:00:29;;;;;;;7.90;5.03;;;17.60;99.90;;;;;;5054210;28;20052;-87
2021/09/06 09:02:56;;;;;;;7.75;4.95;;;17.70;99.90;;;;;;5054107;28;20045;-87
2021/09/06 09:05:23;;;;;;;8.27;4.68;;;17.70;99.90;;;;;;5054023;28;20387;-87
2021/09/06 09:07:57;;;;;;;6.35;4.15;;;17.80;99.90;;;;;;5053850;28;20067;-87
2021/09/06 09:10:31;;;;;;;6.33;4.23;;;17.90;99.80;;;;;;5053853;28;20068;-87
2021/09/06 09:13:06;;;;;;;7.18;4.80;;;18.00;99.70;;;;;;5053763;28;20059;-86
2021/09/06 09:15:35;;;;;;;7.28;4.75;;;18.10;99.70;;;;;;5053569;28;20501;-87
2021/09/06 09:18:02;;;;;;;7.03;4.40;;;18.10;99.60;;;;;;5053871;28;20429;-89
2021/09/06 09:20:40;;;;;;;7.50;3.95;;;18.20;99.50;;;;;;5054059;28;20139;-90
2021/09/06 09:23:08;;;;;;;7.00;3.97;;;18.30;99.30;;;;;;5053957;28;20047;-91
2021/09/06 09:25:37;;;;;;;6.25;3.90;;;18.40;99.00;;;;;;5053860;28;20049;-89
2021/09/06 09:28:05;;;;;;;5.53;3.83;;;18.50;98.80;;;;;;5051960;28;20049;-90
2021/09/06 09:30:35;;;;;;;6.20;3.90;;;18.60;98.40;;;;;;5051784;28;20051;-90
2021/09/06 09:33:11;;;;;;;6.78;4.47;;;18.70;98.10;;;;;;5052247;28;20071;-90
2021/09/06 09:35:39;;;;;;;7.45;4.30;;;18.70;97.80;;;;;;5051820;28;20047;-91
2021/09/06 09:38:09;;;;;;;6.88;4.05;;;18.80;97.40;;;;;;5051940;28;20059;-91
2021/09/06 09:40:40;;;;;;;6.45;4.20;;;18.90;97.20;;;;;;5051419;28;20526;-91
2021/09/06 09:43:09;;;;;;;6.05;3.50;;;18.90;97.10;;;;;;5051885;28;20049;-90
2021/09/06 09:45:37;;;;;;;6.72;3.58;;;19.00;97.00;;;;;;5051615;28;20053;-90
2021/09/06 09:48:08;;;;;;;6.80;3.72;;;19.10;96.90;;;;;;5051371;28;20055;-90
2021/09/06 09:50:37;;;;;;;6.70;4.30;;;19.20;96.80;;;;;;5050875;28;20552;-92
2021/09/06 09:53:05;;;;;;;6.90;3.78;;;19.40;96.80;;;;;;5051253;28;20132;-91
2021/09/06 09:55:34;;;;;;;5.55;3.72;;;19.40;96.70;;;;;;5050865;28;20045;-90
2021/09/06 09:58:03;;;;;;;6.22;3.78;;;19.50;96.70;;;;;;5046884;28;20037;-89
2021/09/06 10:00:30;;;;;;;6.40;3.78;;;19.60;96.80;;;;;;5030110;28;20056;-89
2021/09/06 10:03:00;;;;;;;6.47;4.30;;;19.70;96.80;;;;;;5030909;28;20140;-89
2021/09/06 10:05:31;;;;;;;8.48;4.35;;;19.70;96.70;;;;;;5031086;28;20072;-89
2021/09/06 10:08:00;;;;;;;7.68;4.88;;;19.80;96.70;;;;;;5031066;28;20501;-90
2021/09/06 10:10:28;;;;;;;7.43;4.93;;;19.80;96.70;;;;;;5034523;28;20140;-88
2021/09/06 10:13:07;;;;;;;7.40;4.78;;;19.90;96.90;;;;;;5050115;28;20080;-88
2021/09/06 10:15:36;;;;;;;7.40;3.80;;;19.90;97.00;;;;;;5050540;28;20049;-88
2021/09/06 10:18:18;;;;;;;6.53;4.38;;;20.00;97.10;;;;;;5050882;28;20045;-90
2021/09/06 10:20:47;;;;;;;7.43;4.75;;;20.10;97.20;;;;;;5050902;28;20128;-88
2021/09/06 10:23:15;;;;;;;6.35;4.03;;;20.20;97.10;;;;;;5050131;28;20052;-87
2021/09/06 10:25:44;;;;;;;8.38;4.60;;;20.30;97.10;;;;;;5048853;28;20562;-90
2021/09/06 10:28:16;;;;;;;5.80;3.72;;;20.40;97.10;;;;;;5046071;28;20464;-88
2021/09/06 10:30:45;;;;;;;7.78;4.40;;;20.50;97.20;;;;;;5032976;28;20041;-87
2021/09/06 10:33:26;;;;;;;8.13;4.32;;;20.50;97.20;;;;;;5041023;28;20052;-89
2021/09/06 10:36:08;;;;;;;7.43;4.20;;;20.60;97.20;;;;;;5038770;28;20049;-88
2021/09/06 10:38:44;;;;;;;7.07;4.32;;;20.70;96.90;;;;;;5049251;28;20067;-81
2021/09/06 10:41:14;;;;;;;5.70;3.78;;;20.80;96.80;;;;;;5034101;28;20129;-83
2021/09/06 10:43:48;;;;;;;6.55;4.00;;;20.90;96.70;;;;;;5029715;28;20052;-81
2021/09/06 10:46:16;;;;;;;8.02;4.57;;;21.00;96.60;;;;;;5041679;28;20081;-81
2021/09/06 10:48:44;;;;;;;6.00;4.05;;;21.10;96.30;;;;;;5038556;28;20063;-82
2021/09/06 10:51:12;;;;;;;6.20;4.20;;;21.10;96.00;;;;;;5031112;28;20052;-83
2021/09/06 10:53:40;;;;;;;6.45;4.35;;;21.20;95.50;;;;;;5030806;28;20065;-81
2021/09/06 10:56:08;;;;;;;7.10;4.68;;;21.30;95.40;;;;;;5037423;28;20049;-82
2021/09/06 10:58:35;;;;;;;6.47;4.50;;;21.30;95.30;;;;;;5033110;28;20097;-81
2021/09/06 11:01:08;;;;;;;6.05;4.13;;;21.40;95.00;;;;;;5029945;28;20049;-82
2021/09/06 11:03:38;;;;;;;5.95;4.25;;;21.50;94.70;;;;;;5032599;28;20482;-82
2021/09/06 11:06:06;;;;;;;7.10;4.18;;;21.60;94.50;;;;;;5033532;28;20053;-82
2021/09/06 11:08:36;;;;;;;5.90;4.00;;;21.70;94.50;;;;;;5043614;28;20505;-82
2021/09/06 11:11:05;;;;;;;6.70;3.83;;;;;;;;;;5038651;28;20041;-82
2021/09/06 11:13:37;;;;;;;6.45;4.63;;;21.80;93.50;;;;;;5033577;28;20483;-83
2021/09/06 11:16:08;;;;;;;6.13;4.40;;;21.90;93.10;;;;;;5051126;28;20138;-82
2021/09/06 11:18:37;;;;;;;7.88;4.30;;;22.10;92.10;;;;;;5053190;28;20055;-82
2021/09/06 11:21:05;;;;;;;5.72;3.80;;;22.20;91.40;;;;;;5052832;28;20124;-84
2021/09/06 11:23:36;;;;;;;6.90;4.28;;;22.30;91.00;;;;;;5051230;28;20048;-83
2021/09/06 11:26:04;;;;;;;6.20;4.13;;;22.30;90.60;;;;;;5052375;28;20596;-80
2021/09/06 11:28:31;;;;;;;6.55;4.18;;;22.40;90.20;;;;;;5052415;28;20049;-81
2021/09/06 11:30:58;;;;;;;6.10;4.18;;;22.50;89.20;;;;;;5052888;28;20045;-81
2021/09/06 11:33:28;;;;;;;5.93;3.35;;;22.60;88.40;;;;;;5051114;28;20068;-81
2021/09/06 11:35:56;;;;;;;5.35;3.67;;;22.80;86.30;;;;;;5037370;28;20415;-83
2021/09/06 11:38:23;;;;;;;5.00;3.40;;;22.80;84.70;;;;;;5032862;28;20053;-81
2021/09/06 11:40:56;;;;;;;5.68;3.70;;;22.90;83.40;;;;;;5033858;28;20438;-81
2021/09/06 11:43:26;;;;;;;6.20;3.92;;;23.00;82.80;;;;;;5032208;28;20063;-81
2021/09/06 11:46:00;;;;;;;5.97;3.88;;;23.10;80.30;;;;;;5032350;28;20139;-86
2021/09/06 11:48:29;;;;;;;6.07;4.28;;;23.20;78.80;;;;;;5040390;28;20052;-80
2021/09/06 11:50:56;;;;;;;5.95;4.00;;;23.20;77.60;;;;;;5036237;28;20415;-80
2021/09/06 11:53:23;;;;;;;6.45;3.88;;;23.40;77.70;;;;;;5032034;28;20167;-80
2021/09/06 11:55:52;;;;;;;5.57;3.75;;;23.40;77.20;;;;;;5031871;28;20051;-79
2021/09/06 11:58:25;;;;;;;5.43;3.42;;;23.50;76.60;;;;;;5032195;28;20144;-80
2021/09/06 12:00:52;;;;;;;5.53;3.55;;;23.60;75.40;;;;;;5033060;28;20046;-82
2021/09/06 12:03:25;;;;;;;6.57;3.80;;;23.70;74.50;;;;;;5043056;28;20128;-80
2021/09/06 12:06:03;;;;;;;5.35;3.47;;;23.80;73.60;;;;;;5038700;28;20128;-80
2021/09/06 12:08:30;;;;;;;5.30;3.50;;;23.80;71.70;;;;;;5050693;28;20049;-79
2021/09/06 12:11:07;;;;;;;7.35;4.30;;;23.90;71.10;;;;;;5039627;28;20072;-82
2021/09/06 12:13:35;;;;;;;5.53;3.63;;;24.00;70.30;;;;;;5030971;28;20049;-82
2021/09/06 12:16:05;;;;;;;5.57;3.50;;;24.10;70.20;;;;;;5043882;28;20045;-82
2021/09/06 12:18:37;;;;;;;6.13;3.60;;;24.20;71.00;;;;;;5051196;28;20045;-82
2021/09/06 12:21:08;;;;;;;5.68;3.63;;;24.30;70.50;;;;;;5048913;28;20509;-82
2021/09/06 12:23:37;;;;;;;6.72;3.88;;;24.40;69.20;;;;;;5050689;28;20048;-82
2021/09/06 12:26:05;;;;;;;5.63;3.55;;;24.50;68.60;;;;;;5050479;28;20056;-82
2021/09/06 12:28:33;;;;;;;5.40;3.85;;;24.70;67.20;;;;;;5050870;28;20406;-80
2021/09/06 12:31:02;;;;;;;6.20;4.25;;;24.80;65.70;;;;;;5049072;28;20045;-80
2021/09/06 12:33:30;;;;;;;6.03;3.60;;;24.80;65.00;;;;;;5050638;28;20051;-81
2021/09/06 12:35:59;;;;;;;4.55;3.03;;;25.00;64.60;;;;;;5049716;28;20071;-80
2021/09/06 12:38:27;;;;;;;4.93;3.30;;;25.10;65.00;;;;;;5050262;28;20059;-80
2021/09/06 12:40:54;;;;;;;5.18;3.30;;;25.20;90.60;;;;;;5038014;28;20055;-80
2021/09/06 12:43:21;;;;;;;5.82;3.50;;;25.30;83.10;;;;;;5030538;28;20119;-82
2021/09/06 12:45:49;;;;;;;5.45;3.42;;;25.50;79.80;;;;;;5044623;28;20372;-82
2021/09/06 12:48:16;;;;;;;6.93;4.00;;;25.50;79.60;;;;;;5050201;28;20080;-81
2021/09/06 12:50:43;;;;;;;6.22;3.90;;;25.60;67.80;;;;;;5045747;28;20052;-80
2021/09/06 12:53:10;;;;;;;5.68;3.60;;;25.80;69.50;;;;;;5050124;28;20049;-80